sensor_id;sensor_type;location;lat;lon;timestamp;temperature;humidity
39019;DHT22;24786;51.984;5.872;2023-02-01T00:01:10;5.10;99.90
39019;DHT22;24786;51.984;5.872;2023-02-01T00:03:36;5.10;99.90
39019;DHT22;24786;51.984;5.872;2023-02-01T00:06:02;5.20;99.90
39019;DHT22;24786;51.984;5.872;2023-02-01T00:08:28;5.20;99.90
39019;DHT22;24786;51.984;5.872;2023-02-01T00:11:04;5.20;99.90
39019;DHT22;24786;51.984;5.872;2023-02-01T00:13:32;5.20;99.90
39019;DHT22;24786;51.984;5.872;2023-02-01T00:18:38;5.10;99.90
39019;DHT22;24786;51.984;5.872;2023-02-01T00:21:04;5.10;99.90
39019;DHT22;24786;51.984;5.872;2023-02-01T00:23:34;5.00;99.90
39019;DHT22;24786;51.984;5.872;2023-02-01T00:26:02;5.00;99.90
39019;DHT22;24786;51.984;5.872;2023-02-01T00:28:28;5.00;99.90
39019;DHT22;24786;51.984;5.872;2023-02-01T00:31:02;4.90;99.90
39019;DHT22;24786;51.984;5.872;2023-02-01T00:33:29;5.00;99.90
39019;DHT22;24786;51.984;5.872;2023-02-01T00:35:58;5.00;99.90
39019;DHT22;24786;51.984;5.872;2023-02-01T00:38:26;4.90;99.90
39019;DHT22;24786;51.984;5.872;2023-02-01T00:40:51;4.90;99.90
39019;DHT22;24786;51.984;5.872;2023-02-01T00:43:17;4.90;99.90
39019;DHT22;24786;51.984;5.872;2023-02-01T00:45:42;4.90;99.90
39019;DHT22;24786;51.984;5.872;2023-02-01T00:48:08;4.90;99.90
39019;DHT22;24786;51.984;5.872;2023-02-01T00:50:33;4.90;99.90
39019;DHT22;24786;51.984;5.872;2023-02-01T00:52:59;4.90;99.90
39019;DHT22;24786;51.984;5.872;2023-02-01T00:55:25;4.90;99.90
39019;DHT22;24786;51.984;5.872;2023-02-01T00:57:50;5.00;99.90
39019;DHT22;24786;51.984;5.872;2023-02-01T01:00:16;5.00;99.90
39019;DHT22;24786;51.984;5.872;2023-02-01T01:02:42;5.00;99.90
39019;DHT22;24786;51.984;5.872;2023-02-01T01:05:08;5.10;99.90
39019;DHT22;24786;51.984;5.872;2023-02-01T01:07:33;5.10;99.90
39019;DHT22;24786;51.984;5.872;2023-02-01T01:09:59;5.10;99.90
39019;DHT22;24786;51.984;5.872;2023-02-01T01:12:25;5.20;99.90
39019;DHT22;24786;51.984;5.872;2023-02-01T01:14:51;5.20;99.90
39019;DHT22;24786;51.984;5.872;2023-02-01T01:17:16;5.20;99.90
39019;DHT22;24786;51.984;5.872;2023-02-01T01:19:42;5.20;99.90
39019;DHT22;24786;51.984;5.872;2023-02-01T01:22:07;5.20;99.90
39019;DHT22;24786;51.984;5.872;2023-02-01T01:24:33;5.20;99.90
39019;DHT22;24786;51.984;5.872;2023-02-01T01:26:59;5.10;99.90
39019;DHT22;24786;51.984;5.872;2023-02-01T01:29:24;5.20;99.90
39019;DHT22;24786;51.984;5.872;2023-02-01T01:31:50;5.10;99.90
39019;DHT22;24786;51.984;5.872;2023-02-01T01:34:16;5.10;99.90
39019;DHT22;24786;51.984;5.872;2023-02-01T01:36:41;5.10;99.90
39019;DHT22;24786;51.984;5.872;2023-02-01T01:39:07;5.10;99.90
39019;DHT22;24786;51.984;5.872;2023-02-01T01:41:33;5.10;99.90
39019;DHT22;24786;51.984;5.872;2023-02-01T01:44:53;5.10;99.90
39019;DHT22;24786;51.984;5.872;2023-02-01T01:46:49;5.10;99.90
39019;DHT22;24786;51.984;5.872;2023-02-01T01:49:17;5.10;99.90
39019;DHT22;24786;51.984;5.872;2023-02-01T01:51:52;5.00;99.90
39019;DHT22;24786;51.984;5.872;2023-02-01T01:54:25;5.00;99.90
39019;DHT22;24786;51.984;5.872;2023-02-01T01:56:57;5.00;99.90
39019;DHT22;24786;51.984;5.872;2023-02-01T01:59:24;5.00;99.90
39019;DHT22;24786;51.984;5.872;2023-02-01T02:01:51;5.00;99.90
39019;DHT22;24786;51.984;5.872;2023-02-01T02:04:18;4.90;99.90
39019;DHT22;24786;51.984;5.872;2023-02-01T02:07:04;5.00;99.90
39019;DHT22;24786;51.984;5.872;2023-02-01T02:09:29;5.00;99.90
39019;DHT22;24786;51.984;5.872;2023-02-01T02:11:55;5.00;99.90
39019;DHT22;24786;51.984;5.872;2023-02-01T02:14:23;5.00;99.90
39019;DHT22;24786;51.984;5.872;2023-02-01T02:41:58;5.10;99.90
39019;DHT22;24786;51.984;5.872;2023-02-01T02:45:05;5.20;99.90
39019;DHT22;24786;51.984;5.872;2023-02-01T02:47:55;5.10;99.90
39019;DHT22;24786;51.984;5.872;2023-02-01T02:51:12;5.10;99.90
39019;DHT22;24786;51.984;5.872;2023-02-01T02:54:00;5.00;99.90
39019;DHT22;24786;51.984;5.872;2023-02-01T02:56:44;5.00;99.90
39019;DHT22;24786;51.984;5.872;2023-02-01T02:59:28;4.90;99.90
39019;DHT22;24786;51.984;5.872;2023-02-01T03:02:15;4.90;99.90
39019;DHT22;24786;51.984;5.872;2023-02-01T03:04:59;4.90;99.90
39019;DHT22;24786;51.984;5.872;2023-02-01T03:10:16;4.90;99.90
39019;DHT22;24786;51.984;5.872;2023-02-01T03:12:43;4.90;99.90
39019;DHT22;24786;51.984;5.872;2023-02-01T03:15:32;4.90;99.90
39019;DHT22;24786;51.984;5.872;2023-02-01T03:18:01;4.90;99.90
39019;DHT22;24786;51.984;5.872;2023-02-01T03:20:29;4.90;99.90
39019;DHT22;24786;51.984;5.872;2023-02-01T03:22:55;4.90;99.90
39019;DHT22;24786;51.984;5.872;2023-02-01T03:25:26;4.90;99.90
39019;DHT22;24786;51.984;5.872;2023-02-01T03:27:57;4.90;99.90
39019;DHT22;24786;51.984;5.872;2023-02-01T03:30:29;4.80;99.90
39019;DHT22;24786;51.984;5.872;2023-02-01T03:32:59;4.80;99.90
39019;DHT22;24786;51.984;5.872;2023-02-01T03:38:03;4.80;99.90
39019;DHT22;24786;51.984;5.872;2023-02-01T03:40:35;4.80;99.90
39019;DHT22;24786;51.984;5.872;2023-02-01T03:43:03;4.90;99.90
39019;DHT22;24786;51.984;5.872;2023-02-01T03:45:34;4.90;99.90
39019;DHT22;24786;51.984;5.872;2023-02-01T03:48:02;5.00;99.90
39019;DHT22;24786;51.984;5.872;2023-02-01T03:50:30;5.10;99.90
39019;DHT22;24786;51.984;5.872;2023-02-01T03:53:05;5.10;99.90
39019;DHT22;24786;51.984;5.872;2023-02-01T03:55:32;5.20;99.90
39019;DHT22;24786;51.984;5.872;2023-02-01T04:00:31;5.30;99.90
39019;DHT22;24786;51.984;5.872;2023-02-01T04:02:56;5.30;99.90
39019;DHT22;24786;51.984;5.872;2023-02-01T04:05:22;5.30;99.90
39019;DHT22;24786;51.984;5.872;2023-02-01T04:07:48;5.30;99.90
39019;DHT22;24786;51.984;5.872;2023-02-01T04:10:14;5.30;99.90
39019;DHT22;24786;51.984;5.872;2023-02-01T04:12:40;5.30;99.90
39019;DHT22;24786;51.984;5.872;2023-02-01T04:15:07;5.30;99.90
39019;DHT22;24786;51.984;5.872;2023-02-01T04:17:32;5.30;99.90
39019;DHT22;24786;51.984;5.872;2023-02-01T04:19:58;5.30;99.90
39019;DHT22;24786;51.984;5.872;2023-02-01T04:22:24;5.30;99.90
39019;DHT22;24786;51.984;5.872;2023-02-01T04:24:49;5.40;99.90
39019;DHT22;24786;51.984;5.872;2023-02-01T04:27:15;5.40;99.90
39019;DHT22;24786;51.984;5.872;2023-02-01T04:29:41;5.40;99.90
39019;DHT22;24786;51.984;5.872;2023-02-01T04:32:06;5.50;99.90
39019;DHT22;24786;51.984;5.872;2023-02-01T04:34:32;5.40;99.90
39019;DHT22;24786;51.984;5.872;2023-02-01T04:36:57;5.40;99.90
39019;DHT22;24786;51.984;5.872;2023-02-01T04:39:23;5.50;99.90
39019;DHT22;24786;51.984;5.872;2023-02-01T04:41:49;5.50;99.90
39019;DHT22;24786;51.984;5.872;2023-02-01T04:44:18;5.60;99.90
39019;DHT22;24786;51.984;5.872;2023-02-01T04:46:44;5.70;99.90
39019;DHT22;24786;51.984;5.872;2023-02-01T04:49:11;5.70;99.90
39019;DHT22;24786;51.984;5.872;2023-02-01T04:51:38;5.70;99.90
39019;DHT22;24786;51.984;5.872;2023-02-01T04:54:03;5.80;99.90
39019;DHT22;24786;51.984;5.872;2023-02-01T04:56:29;5.90;99.90
39019;DHT22;24786;51.984;5.872;2023-02-01T04:58:55;5.90;99.90
39019;DHT22;24786;51.984;5.872;2023-02-01T05:01:21;5.90;99.90
39019;DHT22;24786;51.984;5.872;2023-02-01T05:03:47;5.90;99.90
39019;DHT22;24786;51.984;5.872;2023-02-01T05:06:13;6.00;99.90
39019;DHT22;24786;51.984;5.872;2023-02-01T05:08:38;6.00;99.90
39019;DHT22;24786;51.984;5.872;2023-02-01T05:11:04;6.10;99.90
39019;DHT22;24786;51.984;5.872;2023-02-01T05:13:30;6.10;99.90
39019;DHT22;24786;51.984;5.872;2023-02-01T05:16:14;6.10;99.90
39019;DHT22;24786;51.984;5.872;2023-02-01T05:18:40;6.10;99.90
39019;DHT22;24786;51.984;5.872;2023-02-01T05:21:06;6.20;99.90
39019;DHT22;24786;51.984;5.872;2023-02-01T05:23:31;6.20;99.90
39019;DHT22;24786;51.984;5.872;2023-02-01T05:26:00;6.20;99.90
39019;DHT22;24786;51.984;5.872;2023-02-01T05:28:27;6.20;99.90
39019;DHT22;24786;51.984;5.872;2023-02-01T05:30:53;6.30;99.90
39019;DHT22;24786;51.984;5.872;2023-02-01T05:33:18;6.30;99.90
39019;DHT22;24786;51.984;5.872;2023-02-01T05:35:44;6.30;99.90
39019;DHT22;24786;51.984;5.872;2023-02-01T05:38:10;6.30;99.90
39019;DHT22;24786;51.984;5.872;2023-02-01T05:40:35;6.30;99.90
39019;DHT22;24786;51.984;5.872;2023-02-01T05:43:01;6.30;99.90
39019;DHT22;24786;51.984;5.872;2023-02-01T05:45:26;6.30;99.90
39019;DHT22;24786;51.984;5.872;2023-02-01T05:47:52;6.40;99.90
39019;DHT22;24786;51.984;5.872;2023-02-01T05:50:18;6.40;99.90
39019;DHT22;24786;51.984;5.872;2023-02-01T05:52:43;6.40;99.90
39019;DHT22;24786;51.984;5.872;2023-02-01T05:55:09;6.40;99.90
39019;DHT22;24786;51.984;5.872;2023-02-01T05:57:35;6.40;99.90
39019;DHT22;24786;51.984;5.872;2023-02-01T06:00:00;6.40;99.90
39019;DHT22;24786;51.984;5.872;2023-02-01T06:02:26;6.40;99.90
39019;DHT22;24786;51.984;5.872;2023-02-01T06:04:52;6.40;99.90
39019;DHT22;24786;51.984;5.872;2023-02-01T06:07:18;6.40;99.90
39019;DHT22;24786;51.984;5.872;2023-02-01T06:09:43;6.50;99.90
39019;DHT22;24786;51.984;5.872;2023-02-01T06:12:09;6.40;99.90
39019;DHT22;24786;51.984;5.872;2023-02-01T06:14:36;6.40;99.90
39019;DHT22;24786;51.984;5.872;2023-02-01T06:17:02;6.40;99.90
39019;DHT22;24786;51.984;5.872;2023-02-01T06:19:28;6.50;99.90
39019;DHT22;24786;51.984;5.872;2023-02-01T06:21:54;6.50;99.90
39019;DHT22;24786;51.984;5.872;2023-02-01T06:24:19;6.50;99.90
39019;DHT22;24786;51.984;5.872;2023-02-01T06:26:45;6.50;99.90
39019;DHT22;24786;51.984;5.872;2023-02-01T06:29:11;6.50;99.90
39019;DHT22;24786;51.984;5.872;2023-02-01T06:31:36;6.50;99.90
39019;DHT22;24786;51.984;5.872;2023-02-01T06:34:02;6.50;99.90
39019;DHT22;24786;51.984;5.872;2023-02-01T06:36:28;6.50;99.90
39019;DHT22;24786;51.984;5.872;2023-02-01T06:38:54;6.60;99.90
39019;DHT22;24786;51.984;5.872;2023-02-01T06:41:22;6.50;99.90
39019;DHT22;24786;51.984;5.872;2023-02-01T06:43:47;6.50;99.90
39019;DHT22;24786;51.984;5.872;2023-02-01T06:46:13;6.50;99.90
39019;DHT22;24786;51.984;5.872;2023-02-01T06:48:39;6.50;99.90
39019;DHT22;24786;51.984;5.872;2023-02-01T06:51:05;6.50;99.90
39019;DHT22;24786;51.984;5.872;2023-02-01T06:53:31;6.60;99.90
39019;DHT22;24786;51.984;5.872;2023-02-01T06:55:59;6.50;99.90
39019;DHT22;24786;51.984;5.872;2023-02-01T06:58:29;6.50;99.90
39019;DHT22;24786;51.984;5.872;2023-02-01T07:00:54;6.60;99.90
39019;DHT22;24786;51.984;5.872;2023-02-01T07:03:20;6.60;99.90
39019;DHT22;24786;51.984;5.872;2023-02-01T07:05:46;6.60;99.90
39019;DHT22;24786;51.984;5.872;2023-02-01T07:08:11;6.60;99.90
39019;DHT22;24786;51.984;5.872;2023-02-01T07:10:37;6.60;99.90
39019;DHT22;24786;51.984;5.872;2023-02-01T07:13:03;6.60;99.90
39019;DHT22;24786;51.984;5.872;2023-02-01T07:15:29;6.50;99.90
39019;DHT22;24786;51.984;5.872;2023-02-01T07:17:55;6.50;99.90
39019;DHT22;24786;51.984;5.872;2023-02-01T07:20:21;6.50;99.90
39019;DHT22;24786;51.984;5.872;2023-02-01T07:22:47;6.50;99.90
39019;DHT22;24786;51.984;5.872;2023-02-01T07:25:12;6.50;99.90
39019;DHT22;24786;51.984;5.872;2023-02-01T07:27:38;6.40;99.90
39019;DHT22;24786;51.984;5.872;2023-02-01T07:30:04;6.40;99.90
39019;DHT22;24786;51.984;5.872;2023-02-01T07:32:31;6.40;99.90
39019;DHT22;24786;51.984;5.872;2023-02-01T07:34:57;6.40;99.90
39019;DHT22;24786;51.984;5.872;2023-02-01T07:37:23;6.40;99.90
39019;DHT22;24786;51.984;5.872;2023-02-01T07:39:50;6.30;99.90
39019;DHT22;24786;51.984;5.872;2023-02-01T07:42:16;6.40;99.90
39019;DHT22;24786;51.984;5.872;2023-02-01T07:44:41;6.30;99.90
39019;DHT22;24786;51.984;5.872;2023-02-01T07:47:07;6.30;99.90
39019;DHT22;24786;51.984;5.872;2023-02-01T07:49:32;6.30;99.90
39019;DHT22;24786;51.984;5.872;2023-02-01T07:51:58;6.30;99.90
39019;DHT22;24786;51.984;5.872;2023-02-01T07:54:24;6.30;99.90
39019;DHT22;24786;51.984;5.872;2023-02-01T07:56:49;6.30;99.90
39019;DHT22;24786;51.984;5.872;2023-02-01T07:59:15;6.30;99.90
39019;DHT22;24786;51.984;5.872;2023-02-01T08:01:41;6.30;99.90
39019;DHT22;24786;51.984;5.872;2023-02-01T08:04:10;6.30;99.90
39019;DHT22;24786;51.984;5.872;2023-02-01T08:06:36;6.30;99.90
39019;DHT22;24786;51.984;5.872;2023-02-01T08:09:03;6.30;99.90
39019;DHT22;24786;51.984;5.872;2023-02-01T08:11:29;6.30;99.90
39019;DHT22;24786;51.984;5.872;2023-02-01T08:13:55;6.30;99.90
39019;DHT22;24786;51.984;5.872;2023-02-01T08:16:21;6.40;99.90
39019;DHT22;24786;51.984;5.872;2023-02-01T08:18:47;6.30;99.90
39019;DHT22;24786;51.984;5.872;2023-02-01T08:21:15;6.30;99.90
39019;DHT22;24786;51.984;5.872;2023-02-01T08:23:42;6.30;99.90
39019;DHT22;24786;51.984;5.872;2023-02-01T08:26:25;6.40;99.90
39019;DHT22;24786;51.984;5.872;2023-02-01T08:28:55;6.30;99.90
39019;DHT22;24786;51.984;5.872;2023-02-01T08:31:23;6.30;99.90
39019;DHT22;24786;51.984;5.872;2023-02-01T08:33:57;6.30;99.90
39019;DHT22;24786;51.984;5.872;2023-02-01T08:36:25;6.30;99.90
39019;DHT22;24786;51.984;5.872;2023-02-01T08:38:51;6.40;99.90
39019;DHT22;24786;51.984;5.872;2023-02-01T08:41:19;6.40;99.90
39019;DHT22;24786;51.984;5.872;2023-02-01T08:43:45;6.40;99.90
39019;DHT22;24786;51.984;5.872;2023-02-01T08:46:11;6.50;99.90
39019;DHT22;24786;51.984;5.872;2023-02-01T08:48:37;6.60;99.90
39019;DHT22;24786;51.984;5.872;2023-02-01T08:51:05;6.60;99.90
39019;DHT22;24786;51.984;5.872;2023-02-01T08:53:31;6.70;99.90
39019;DHT22;24786;51.984;5.872;2023-02-01T08:55:57;6.80;99.90
39019;DHT22;24786;51.984;5.872;2023-02-01T08:58:23;6.80;99.90
39019;DHT22;24786;51.984;5.872;2023-02-01T09:00:49;6.90;99.90
39019;DHT22;24786;51.984;5.872;2023-02-01T09:03:15;7.00;99.90
39019;DHT22;24786;51.984;5.872;2023-02-01T09:05:41;7.00;99.90
39019;DHT22;24786;51.984;5.872;2023-02-01T09:08:07;7.10;99.90
39019;DHT22;24786;51.984;5.872;2023-02-01T09:10:33;7.10;99.90
39019;DHT22;24786;51.984;5.872;2023-02-01T09:12:59;7.10;99.90
39019;DHT22;24786;51.984;5.872;2023-02-01T09:15:25;7.10;99.90
39019;DHT22;24786;51.984;5.872;2023-02-01T09:17:50;7.10;99.90
39019;DHT22;24786;51.984;5.872;2023-02-01T09:20:16;7.10;99.90
39019;DHT22;24786;51.984;5.872;2023-02-01T09:22:42;7.10;99.90
39019;DHT22;24786;51.984;5.872;2023-02-01T09:25:08;7.10;99.90
39019;DHT22;24786;51.984;5.872;2023-02-01T09:27:34;7.10;99.90
39019;DHT22;24786;51.984;5.872;2023-02-01T09:30:00;7.20;99.90
39019;DHT22;24786;51.984;5.872;2023-02-01T09:32:26;7.20;99.90
39019;DHT22;24786;51.984;5.872;2023-02-01T09:34:52;7.20;99.90
39019;DHT22;24786;51.984;5.872;2023-02-01T09:37:19;7.30;99.90
39019;DHT22;24786;51.984;5.872;2023-02-01T09:39:45;7.40;99.90
39019;DHT22;24786;51.984;5.872;2023-02-01T09:45:54;7.50;99.90
39019;DHT22;24786;51.984;5.872;2023-02-01T09:48:18;7.50;99.90
39019;DHT22;24786;51.984;5.872;2023-02-01T09:50:55;7.60;99.90
39019;DHT22;24786;51.984;5.872;2023-02-01T09:53:27;7.60;99.90
39019;DHT22;24786;51.984;5.872;2023-02-01T09:56:03;7.60;99.90
39019;DHT22;24786;51.984;5.872;2023-02-01T09:58:38;7.60;99.90
39019;DHT22;24786;51.984;5.872;2023-02-01T10:01:21;7.70;99.90
39019;DHT22;24786;51.984;5.872;2023-02-01T10:03:49;7.70;99.90
39019;DHT22;24786;51.984;5.872;2023-02-01T10:12:20;7.60;99.90
39019;DHT22;24786;51.984;5.872;2023-02-01T10:15:15;7.60;99.90
39019;DHT22;24786;51.984;5.872;2023-02-01T10:18:27;7.50;99.90
39019;DHT22;24786;51.984;5.872;2023-02-01T10:21:19;7.50;99.90
39019;DHT22;24786;51.984;5.872;2023-02-01T10:24:13;7.50;99.90
39019;DHT22;24786;51.984;5.872;2023-02-01T10:26:47;7.50;99.90
39019;DHT22;24786;51.984;5.872;2023-02-01T10:29:18;7.50;99.90
39019;DHT22;24786;51.984;5.872;2023-02-01T10:31:44;7.50;99.90
39019;DHT22;24786;51.984;5.872;2023-02-01T10:37:34;7.40;99.90
39019;DHT22;24786;51.984;5.872;2023-02-01T10:39:35;7.40;99.90
39019;DHT22;24786;51.984;5.872;2023-02-01T10:42:02;7.30;99.90
39019;DHT22;24786;51.984;5.872;2023-02-01T10:44:30;7.30;99.90
39019;DHT22;24786;51.984;5.872;2023-02-01T10:46:56;7.20;99.90
39019;DHT22;24786;51.984;5.872;2023-02-01T10:49:37;7.30;99.90
39019;DHT22;24786;51.984;5.872;2023-02-01T10:52:16;7.20;99.90
39019;DHT22;24786;51.984;5.872;2023-02-01T10:54:43;7.10;99.90
39019;DHT22;24786;51.984;5.872;2023-02-01T10:57:22;7.00;99.90
39019;DHT22;24786;51.984;5.872;2023-02-01T10:59:49;7.00;99.90
39019;DHT22;24786;51.984;5.872;2023-02-01T11:02:26;6.90;99.90
39019;DHT22;24786;51.984;5.872;2023-02-01T11:05:05;6.80;99.90
39019;DHT22;24786;51.984;5.872;2023-02-01T11:07:34;6.80;99.90
39019;DHT22;24786;51.984;5.872;2023-02-01T11:10:01;6.80;99.90
39019;DHT22;24786;51.984;5.872;2023-02-01T11:12:37;6.80;99.90
39019;DHT22;24786;51.984;5.872;2023-02-01T11:17:34;6.90;99.90
39019;DHT22;24786;51.984;5.872;2023-02-01T11:20:12;6.80;99.90
39019;DHT22;24786;51.984;5.872;2023-02-01T11:22:48;6.80;99.90
39019;DHT22;24786;51.984;5.872;2023-02-01T11:25:17;6.80;99.90
39019;DHT22;24786;51.984;5.872;2023-02-01T11:27:44;6.80;99.90
39019;DHT22;24786;51.984;5.872;2023-02-01T11:30:39;6.90;99.90
39019;DHT22;24786;51.984;5.872;2023-02-01T11:33:13;6.90;99.90
39019;DHT22;24786;51.984;5.872;2023-02-01T11:35:41;6.90;99.90
39019;DHT22;24786;51.984;5.872;2023-02-01T11:38:22;7.00;99.90
39019;DHT22;24786;51.984;5.872;2023-02-01T11:40:50;7.00;99.90
39019;DHT22;24786;51.984;5.872;2023-02-01T11:43:25;7.00;99.90
39019;DHT22;24786;51.984;5.872;2023-02-01T11:46:00;7.00;99.90
39019;DHT22;24786;51.984;5.872;2023-02-01T11:48:29;7.00;99.90
39019;DHT22;24786;51.984;5.872;2023-02-01T11:54:34;7.00;99.90
39019;DHT22;24786;51.984;5.872;2023-02-01T12:00:25;7.10;99.90
39019;DHT22;24786;51.984;5.872;2023-02-01T12:05:57;7.20;99.90
39019;DHT22;24786;51.984;5.872;2023-02-01T12:16:46;7.40;99.90
39019;DHT22;24786;51.984;5.872;2023-02-01T12:19:17;7.40;99.90
39019;DHT22;24786;51.984;5.872;2023-02-01T12:22:08;7.50;99.90
39019;DHT22;24786;51.984;5.872;2023-02-01T12:27:55;7.50;99.90
39019;DHT22;24786;51.984;5.872;2023-02-01T12:30:45;7.50;99.90
39019;DHT22;24786;51.984;5.872;2023-02-01T12:39:46;7.70;99.90
39019;DHT22;24786;51.984;5.872;2023-02-01T12:42:36;7.80;99.90
39019;DHT22;24786;51.984;5.872;2023-02-01T12:45:38;7.90;99.90
39019;DHT22;24786;51.984;5.872;2023-02-01T12:50:47;8.00;99.90
39019;DHT22;24786;51.984;5.872;2023-02-01T12:53:38;8.00;99.90
39019;DHT22;24786;51.984;5.872;2023-02-01T12:56:12;7.90;99.90
39019;DHT22;24786;51.984;5.872;2023-02-01T12:58:44;7.90;99.90
39019;DHT22;24786;51.984;5.872;2023-02-01T13:01:30;7.90;99.90
39019;DHT22;24786;51.984;5.872;2023-02-01T13:04:17;8.00;99.90
39019;DHT22;24786;51.984;5.872;2023-02-01T13:07:10;8.00;99.90
39019;DHT22;24786;51.984;5.872;2023-02-01T13:12:26;8.00;99.90
39019;DHT22;24786;51.984;5.872;2023-02-01T13:15:00;8.00;99.90
39019;DHT22;24786;51.984;5.872;2023-02-01T13:17:30;8.00;99.90
39019;DHT22;24786;51.984;5.872;2023-02-01T13:22:39;8.00;99.90
39019;DHT22;24786;51.984;5.872;2023-02-01T13:27:50;7.90;99.90
39019;DHT22;24786;51.984;5.872;2023-02-01T13:30:22;8.00;99.90
39019;DHT22;24786;51.984;5.872;2023-02-01T13:36:06;8.00;99.90
39019;DHT22;24786;51.984;5.872;2023-02-01T13:39:17;8.00;99.90
39019;DHT22;24786;51.984;5.872;2023-02-01T13:41:55;8.00;99.90
39019;DHT22;24786;51.984;5.872;2023-02-01T13:44:37;8.00;99.90
39019;DHT22;24786;51.984;5.872;2023-02-01T13:49:48;8.00;99.90
39019;DHT22;24786;51.984;5.872;2023-02-01T13:52:42;8.10;99.90
39019;DHT22;24786;51.984;5.872;2023-02-01T13:55:27;8.00;99.90
39019;DHT22;24786;51.984;5.872;2023-02-01T13:58:22;8.00;99.90
39019;DHT22;24786;51.984;5.872;2023-02-01T14:03:53;8.00;99.90
39019;DHT22;24786;51.984;5.872;2023-02-01T14:11:53;7.90;99.90
39019;DHT22;24786;51.984;5.872;2023-02-01T14:19:34;8.00;99.90
39019;DHT22;24786;51.984;5.872;2023-02-01T14:22:00;8.10;99.90
39019;DHT22;24786;51.984;5.872;2023-02-01T14:24:32;8.10;99.90
39019;DHT22;24786;51.984;5.872;2023-02-01T14:27:07;8.10;99.90
39019;DHT22;24786;51.984;5.872;2023-02-01T14:29:43;8.20;99.90
39019;DHT22;24786;51.984;5.872;2023-02-01T14:32:17;8.20;99.90
39019;DHT22;24786;51.984;5.872;2023-02-01T14:39:52;8.30;99.90
39019;DHT22;24786;51.984;5.872;2023-02-01T14:59:00;8.20;99.90
39019;DHT22;24786;51.984;5.872;2023-02-01T15:01:31;8.20;99.90
39019;DHT22;24786;51.984;5.872;2023-02-01T15:04:13;8.20;99.90
39019;DHT22;24786;51.984;5.872;2023-02-01T15:06:47;8.20;99.90
39019;DHT22;24786;51.984;5.872;2023-02-01T15:09:35;8.20;99.90
39019;DHT22;24786;51.984;5.872;2023-02-01T15:18:01;8.20;99.90
39019;DHT22;24786;51.984;5.872;2023-02-01T15:20:32;8.20;99.90
39019;DHT22;24786;51.984;5.872;2023-02-01T15:25:38;8.20;99.90
39019;DHT22;24786;51.984;5.872;2023-02-01T15:35:31;8.00;99.90
39019;DHT22;24786;51.984;5.872;2023-02-01T15:41:01;7.90;99.90
39019;DHT22;24786;51.984;5.872;2023-02-01T15:43:36;8.00;99.90
39019;DHT22;24786;51.984;5.872;2023-02-01T15:46:07;8.00;99.90
39019;DHT22;24786;51.984;5.872;2023-02-01T15:48:43;7.90;99.90
39019;DHT22;24786;51.984;5.872;2023-02-01T15:51:18;8.00;99.90
39019;DHT22;24786;51.984;5.872;2023-02-01T15:53:55;8.00;99.90
39019;DHT22;24786;51.984;5.872;2023-02-01T16:02:42;8.10;99.90
39019;DHT22;24786;51.984;5.872;2023-02-01T16:05:40;8.10;99.90
39019;DHT22;24786;51.984;5.872;2023-02-01T16:08:23;8.10;99.90
39019;DHT22;24786;51.984;5.872;2023-02-01T16:10:58;8.10;99.90
39019;DHT22;24786;51.984;5.872;2023-02-01T16:13:24;8.20;99.90
39019;DHT22;24786;51.984;5.872;2023-02-01T16:15:50;8.20;99.90
39019;DHT22;24786;51.984;5.872;2023-02-01T16:18:16;8.10;99.90
39019;DHT22;24786;51.984;5.872;2023-02-01T16:20:42;8.10;99.90
39019;DHT22;24786;51.984;5.872;2023-02-01T16:23:09;8.10;99.90
39019;DHT22;24786;51.984;5.872;2023-02-01T16:25:36;8.10;99.90
39019;DHT22;24786;51.984;5.872;2023-02-01T16:28:02;8.10;99.90
39019;DHT22;24786;51.984;5.872;2023-02-01T16:30:28;8.20;99.90
39019;DHT22;24786;51.984;5.872;2023-02-01T16:32:55;8.10;99.90
39019;DHT22;24786;51.984;5.872;2023-02-01T16:35:26;8.20;99.90
39019;DHT22;24786;51.984;5.872;2023-02-01T16:38:18;8.20;99.90
39019;DHT22;24786;51.984;5.872;2023-02-01T16:40:48;8.20;99.90
39019;DHT22;24786;51.984;5.872;2023-02-01T16:43:22;8.10;99.90
39019;DHT22;24786;51.984;5.872;2023-02-01T16:46:05;8.20;99.90
39019;DHT22;24786;51.984;5.872;2023-02-01T16:48:36;8.20;99.90
39019;DHT22;24786;51.984;5.872;2023-02-01T16:51:10;8.20;99.90
39019;DHT22;24786;51.984;5.872;2023-02-01T16:53:37;8.30;99.90
39019;DHT22;24786;51.984;5.872;2023-02-01T16:56:14;8.20;99.90
39019;DHT22;24786;51.984;5.872;2023-02-01T16:58:52;8.30;99.90
39019;DHT22;24786;51.984;5.872;2023-02-01T17:01:44;8.30;99.90
39019;DHT22;24786;51.984;5.872;2023-02-01T17:04:10;8.30;99.90
39019;DHT22;24786;51.984;5.872;2023-02-01T17:09:38;8.20;99.90
39019;DHT22;24786;51.984;5.872;2023-02-01T17:12:28;8.20;99.90
39019;DHT22;24786;51.984;5.872;2023-02-01T17:15:00;8.30;99.90
39019;DHT22;24786;51.984;5.872;2023-02-01T17:17:39;8.30;99.90
39019;DHT22;24786;51.984;5.872;2023-02-01T17:20:10;8.30;99.90
39019;DHT22;24786;51.984;5.872;2023-02-01T17:22:42;8.20;99.90
39019;DHT22;24786;51.984;5.872;2023-02-01T17:25:19;8.20;99.90
39019;DHT22;24786;51.984;5.872;2023-02-01T17:27:46;8.40;99.90
39019;DHT22;24786;51.984;5.872;2023-02-01T17:30:13;8.30;99.90
39019;DHT22;24786;51.984;5.872;2023-02-01T17:32:39;8.30;99.90
39019;DHT22;24786;51.984;5.872;2023-02-01T17:35:08;8.40;99.90
39019;DHT22;24786;51.984;5.872;2023-02-01T17:37:36;8.40;99.90
39019;DHT22;24786;51.984;5.872;2023-02-01T17:40:02;8.40;99.90
39019;DHT22;24786;51.984;5.872;2023-02-01T17:42:29;8.40;99.90
39019;DHT22;24786;51.984;5.872;2023-02-01T17:45:00;8.50;99.90
39019;DHT22;24786;51.984;5.872;2023-02-01T17:47:26;8.40;99.90
39019;DHT22;24786;51.984;5.872;2023-02-01T17:49:52;8.40;99.90
39019;DHT22;24786;51.984;5.872;2023-02-01T17:52:22;8.40;99.90
39019;DHT22;24786;51.984;5.872;2023-02-01T17:54:48;8.40;99.90
39019;DHT22;24786;51.984;5.872;2023-02-01T17:57:16;8.40;99.90
39019;DHT22;24786;51.984;5.872;2023-02-01T17:59:42;8.50;99.90
39019;DHT22;24786;51.984;5.872;2023-02-01T18:02:25;8.40;99.90
39019;DHT22;24786;51.984;5.872;2023-02-01T18:04:51;8.50;99.90
39019;DHT22;24786;51.984;5.872;2023-02-01T18:07:17;8.60;99.90
39019;DHT22;24786;51.984;5.872;2023-02-01T18:09:45;8.50;99.90
39019;DHT22;24786;51.984;5.872;2023-02-01T18:12:21;8.60;99.90
39019;DHT22;24786;51.984;5.872;2023-02-01T18:14:50;8.60;99.90
39019;DHT22;24786;51.984;5.872;2023-02-01T18:17:55;8.70;99.90
39019;DHT22;24786;51.984;5.872;2023-02-01T18:27:02;8.40;99.90
39019;DHT22;24786;51.984;5.872;2023-02-01T18:29:38;8.20;99.90
39019;DHT22;24786;51.984;5.872;2023-02-01T18:32:04;8.10;99.90
39019;DHT22;24786;51.984;5.872;2023-02-01T18:36:57;8.00;99.90
39019;DHT22;24786;51.984;5.872;2023-02-01T18:39:23;8.00;99.90
39019;DHT22;24786;51.984;5.872;2023-02-01T18:42:01;7.90;99.90
39019;DHT22;24786;51.984;5.872;2023-02-01T18:44:43;7.80;99.90
39019;DHT22;24786;51.984;5.872;2023-02-01T18:47:11;7.60;99.90
39019;DHT22;24786;51.984;5.872;2023-02-01T18:49:37;7.20;99.90
39019;DHT22;24786;51.984;5.872;2023-02-01T18:52:05;6.90;99.90
39019;DHT22;24786;51.984;5.872;2023-02-01T18:54:30;6.60;99.90